sensor_id;sensor_type;location;lat;lon;timestamp;pressure;altitude;pressure_sealevel;temperature;humidity
54816;BME280;40715;55.752;37.884;2023-03-22T00:01:14;98409.25;;;31.04;22.60
54816;BME280;40715;55.752;37.884;2023-03-22T00:03:42;98413.69;;;31.05;22.36
54816;BME280;40715;55.752;37.884;2023-03-22T00:06:09;98415.56;;;31.04;22.43
54816;BME280;40715;55.752;37.884;2023-03-22T00:08:36;98410.94;;;31.05;22.25
54816;BME280;40715;55.752;37.884;2023-03-22T00:11:04;98411.97;;;31.04;22.41
54816;BME280;40715;55.752;37.884;2023-03-22T00:13:33;98417.41;;;31.04;22.33
54816;BME280;40715;55.752;37.884;2023-03-22T00:16:01;98414.31;;;31.07;22.40
54816;BME280;40715;55.752;37.884;2023-03-22T00:18:29;98413.47;;;31.06;22.39
54816;BME280;40715;55.752;37.884;2023-03-22T00:20:58;98415.56;;;31.04;22.16
54816;BME280;40715;55.752;37.884;2023-03-22T00:23:25;98415.38;;;31.06;22.55
54816;BME280;40715;55.752;37.884;2023-03-22T00:25:54;98414.50;;;31.05;22.17
54816;BME280;40715;55.752;37.884;2023-03-22T00:28:21;98410.94;;;31.05;22.53
54816;BME280;40715;55.752;37.884;2023-03-22T00:30:52;98415.38;;;31.06;22.33
54816;BME280;40715;55.752;37.884;2023-03-22T00:33:20;98415.16;;;31.07;22.14
54816;BME280;40715;55.752;37.884;2023-03-22T00:35:52;98417.88;;;31.07;22.06
54816;BME280;40715;55.752;37.884;2023-03-22T00:38:20;98424.34;;;31.06;22.08
54816;BME280;40715;55.752;37.884;2023-03-22T00:41:05;98426.03;;;31.07;22.10
54816;BME280;40715;55.752;37.884;2023-03-22T00:43:32;98433.53;;;31.05;22.39
54816;BME280;40715;55.752;37.884;2023-03-22T00:45:59;98428.69;;;31.01;22.05
54816;BME280;40715;55.752;37.884;2023-03-22T00:48:26;98431.22;;;31.02;22.29
54816;BME280;40715;55.752;37.884;2023-03-22T00:50:53;98440.69;;;31.06;22.02
54816;BME280;40715;55.752;37.884;2023-03-22T00:53:20;98447.13;;;31.05;22.13
54816;BME280;40715;55.752;37.884;2023-03-22T00:55:47;98440.25;;;31.03;22.08
54816;BME280;40715;55.752;37.884;2023-03-22T00:58:14;98449.44;;;31.02;22.02
54816;BME280;40715;55.752;37.884;2023-03-22T01:00:41;98448.84;;;31.06;22.10
54816;BME280;40715;55.752;37.884;2023-03-22T01:03:09;98449.88;;;31.05;21.83
54816;BME280;40715;55.752;37.884;2023-03-22T01:05:39;98451.56;;;31.06;22.25
54816;BME280;40715;55.752;37.884;2023-03-22T01:08:06;98447.13;;;31.05;21.75
54816;BME280;40715;55.752;37.884;2023-03-22T01:10:37;98459.09;;;31.04;22.23
54816;BME280;40715;55.752;37.884;2023-03-22T01:13:06;98461.81;;;31.04;22.01
54816;BME280;40715;55.752;37.884;2023-03-22T01:15:33;98464.31;;;31.06;22.08
54816;BME280;40715;55.752;37.884;2023-03-22T01:18:00;98464.13;;;31.07;22.07
54816;BME280;40715;55.752;37.884;2023-03-22T01:20:30;98461.50;;;30.99;22.28
54816;BME280;40715;55.752;37.884;2023-03-22T01:22:57;98470.78;;;31.05;21.99
54816;BME280;40715;55.752;37.884;2023-03-22T01:25:25;98470.78;;;31.05;21.99
54816;BME280;40715;55.752;37.884;2023-03-22T01:27:51;98471.34;;;31.00;21.96
54816;BME280;40715;55.752;37.884;2023-03-22T01:30:19;98477.06;;;31.05;21.74
54816;BME280;40715;55.752;37.884;2023-03-22T01:32:46;98483.56;;;31.04;22.09
54816;BME280;40715;55.752;37.884;2023-03-22T01:35:13;98484.38;;;31.05;22.06
54816;BME280;40715;55.752;37.884;2023-03-22T01:37:41;98490.03;;;31.03;21.68
54816;BME280;40715;55.752;37.884;2023-03-22T01:40:10;98487.31;;;31.03;22.04
54816;BME280;40715;55.752;37.884;2023-03-22T01:42:37;98489.00;;;31.04;21.67
54816;BME280;40715;55.752;37.884;2023-03-22T01:47:44;98505.94;;;31.06;22.06
54816;BME280;40715;55.752;37.884;2023-03-22T01:50:13;98504.47;;;31.04;21.91
54816;BME280;40715;55.752;37.884;2023-03-22T01:52:42;98506.72;;;31.00;21.88
54816;BME280;40715;55.752;37.884;2023-03-22T01:55:10;98512.81;;;31.02;22.15
54816;BME280;40715;55.752;37.884;2023-03-22T01:57:40;98510.94;;;31.03;21.82
54816;BME280;40715;55.752;37.884;2023-03-22T02:00:10;98516.19;;;31.04;21.62
54816;BME280;40715;55.752;37.884;2023-03-22T02:02:42;98511.97;;;31.02;21.90
54816;BME280;40715;55.752;37.884;2023-03-22T02:05:09;98509.91;;;31.04;21.88
54816;BME280;40715;55.752;37.884;2023-03-22T02:07:40;98510.09;;;31.02;22.13
54816;BME280;40715;55.752;37.884;2023-03-22T02:10:17;98509.91;;;31.04;22.15
54816;BME280;40715;55.752;37.884;2023-03-22T02:16:02;98522.47;;;31.26;21.83
54816;BME280;40715;55.752;37.884;2023-03-22T02:24:35;98523.66;;;31.17;21.55
54816;BME280;40715;55.752;37.884;2023-03-22T02:39:03;98532.00;;;31.15;21.98
54816;BME280;40715;55.752;37.884;2023-03-22T02:52:42;98541.59;;;31.11;22.02
54816;BME280;40715;55.752;37.884;2023-03-22T02:55:25;98547.16;;;31.03;21.92
54816;BME280;40715;55.752;37.884;2023-03-22T02:58:05;98545.66;;;31.01;22.22
54816;BME280;40715;55.752;37.884;2023-03-22T03:00:35;98551.63;;;30.96;22.15
54816;BME280;40715;55.752;37.884;2023-03-22T03:03:08;98562.97;;;30.99;22.21
54816;BME280;40715;55.752;37.884;2023-03-22T03:05:40;98561.50;;;30.97;22.36
54816;BME280;40715;55.752;37.884;2023-03-22T03:08:11;98568.22;;;31.01;22.53
54816;BME280;40715;55.752;37.884;2023-03-22T03:10:40;98570.13;;;31.01;22.72
54816;BME280;40715;55.752;37.884;2023-03-22T03:13:17;98568.50;;;31.06;23.07
54816;BME280;40715;55.752;37.884;2023-03-22T03:16:03;98562.75;;;31.16;22.79
54816;BME280;40715;55.752;37.884;2023-03-22T03:27:23;98585.66;;;31.07;23.12
54816;BME280;40715;55.752;37.884;2023-03-22T03:29:59;98585.66;;;31.07;23.17
54816;BME280;40715;55.752;37.884;2023-03-22T03:32:33;98585.41;;;31.02;23.20
54816;BME280;40715;55.752;37.884;2023-03-22T03:35:14;98591.28;;;31.05;23.30
54816;BME280;40715;55.752;37.884;2023-03-22T03:37:58;98596.53;;;31.07;23.52
54816;BME280;40715;55.752;37.884;2023-03-22T03:40:30;98598.16;;;31.01;23.51
54816;BME280;40715;55.752;37.884;2023-03-22T03:43:01;98600.19;;;30.99;23.64
54816;BME280;40715;55.752;37.884;2023-03-22T03:45:29;98603.44;;;31.03;23.70
54816;BME280;40715;55.752;37.884;2023-03-22T03:47:59;98602.56;;;31.02;23.70
54816;BME280;40715;55.752;37.884;2023-03-22T03:50:27;98610.72;;;31.02;24.00
54816;BME280;40715;55.752;37.884;2023-03-22T03:52:56;98605.84;;;30.97;24.24
54816;BME280;40715;55.752;37.884;2023-03-22T03:55:23;98615.03;;;30.96;24.39
54816;BME280;40715;55.752;37.884;2023-03-22T03:57:52;98611.84;;;30.93;24.78
54816;BME280;40715;55.752;37.884;2023-03-22T04:00:19;98618.97;;;30.94;24.87
54816;BME280;40715;55.752;37.884;2023-03-22T04:02:46;98625.69;;;30.98;24.97
54816;BME280;40715;55.752;37.884;2023-03-22T04:05:14;98624.69;;;30.99;24.79
54816;BME280;40715;55.752;37.884;2023-03-22T04:07:41;98624.03;;;30.97;25.35
54816;BME280;40715;55.752;37.884;2023-03-22T04:10:08;98626.91;;;30.95;25.35
54816;BME280;40715;55.752;37.884;2023-03-22T04:12:36;98635.28;;;30.94;25.38
54816;BME280;40715;55.752;37.884;2023-03-22T04:15:04;98628.53;;;30.90;25.17
54816;BME280;40715;55.752;37.884;2023-03-22T04:17:31;98644.94;;;30.96;25.51
54816;BME280;40715;55.752;37.884;2023-03-22T04:19:58;98632.75;;;30.92;25.58
54816;BME280;40715;55.752;37.884;2023-03-22T04:22:31;98646.81;;;30.96;25.21
54816;BME280;40715;55.752;37.884;2023-03-22T04:25:00;98661.63;;;30.93;25.17
54816;BME280;40715;55.752;37.884;2023-03-22T04:27:28;98659.94;;;30.92;25.37
54816;BME280;40715;55.752;37.884;2023-03-22T04:29:55;98671.88;;;30.91;25.32
54816;BME280;40715;55.752;37.884;2023-03-22T04:32:23;98673.72;;;30.91;25.46
54816;BME280;40715;55.752;37.884;2023-03-22T04:34:51;98675.63;;;30.90;25.47
54816;BME280;40715;55.752;37.884;2023-03-22T04:37:18;98672.22;;;30.88;25.47
54816;BME280;40715;55.752;37.884;2023-03-22T04:39:48;98681.88;;;30.91;25.43
54816;BME280;40715;55.752;37.884;2023-03-22T04:42:15;98691.94;;;30.90;25.30
54816;BME280;40715;55.752;37.884;2023-03-22T04:44:42;98685.00;;;30.88;25.37
54816;BME280;40715;55.752;37.884;2023-03-22T04:47:09;98686.00;;;30.87;25.64
54816;BME280;40715;55.752;37.884;2023-03-22T04:49:36;98690.63;;;30.86;25.51
54816;BME280;40715;55.752;37.884;2023-03-22T04:52:03;98699.91;;;30.92;26.16
54816;BME280;40715;55.752;37.884;2023-03-22T04:54:30;98699.72;;;30.93;26.09
54816;BME280;40715;55.752;37.884;2023-03-22T04:56:56;98702.72;;;30.98;26.22
54816;BME280;40715;55.752;37.884;2023-03-22T04:59:23;98716.63;;;31.04;25.82
54816;BME280;40715;55.752;37.884;2023-03-22T05:01:50;98712.28;;;31.09;25.93
54816;BME280;40715;55.752;37.884;2023-03-22T05:04:18;98711.91;;;31.12;25.98
54816;BME280;40715;55.752;37.884;2023-03-22T05:06:45;98714.34;;;31.22;26.11
54816;BME280;40715;55.752;37.884;2023-03-22T05:09:13;98714.81;;;31.26;25.90
54816;BME280;40715;55.752;37.884;2023-03-22T05:11:40;98711.22;;;31.25;25.62
54816;BME280;40715;55.752;37.884;2023-03-22T05:14:08;98716.78;;;31.32;25.62
54816;BME280;40715;55.752;37.884;2023-03-22T05:16:36;98722.50;;;31.37;25.54
54816;BME280;40715;55.752;37.884;2023-03-22T05:19:06;98724.84;;;31.40;25.68
54816;BME280;40715;55.752;37.884;2023-03-22T05:21:40;98710.09;;;31.35;25.61
54816;BME280;40715;55.752;37.884;2023-03-22T05:24:10;98733.44;;;31.44;25.86
54816;BME280;40715;55.752;37.884;2023-03-22T05:26:37;98735.13;;;31.45;25.55
54816;BME280;40715;55.752;37.884;2023-03-22T05:29:09;98728.47;;;31.47;25.81
54816;BME280;40715;55.752;37.884;2023-03-22T05:31:36;98739.66;;;31.53;25.70
54816;BME280;40715;55.752;37.884;2023-03-22T05:34:03;98741.50;;;31.52;25.17
54816;BME280;40715;55.752;37.884;2023-03-22T05:36:30;98744.41;;;31.50;25.45
54816;BME280;40715;55.752;37.884;2023-03-22T05:38:57;98754.53;;;31.57;25.39
54816;BME280;40715;55.752;37.884;2023-03-22T05:41:24;98761.50;;;31.59;25.28
54816;BME280;40715;55.752;37.884;2023-03-22T05:43:51;98766.75;;;31.61;25.25
54816;BME280;40715;55.752;37.884;2023-03-22T05:46:18;98774.72;;;31.62;24.76
54816;BME280;40715;55.752;37.884;2023-03-22T05:48:46;98765.63;;;31.55;24.99
54816;BME280;40715;55.752;37.884;2023-03-22T05:51:14;98778.13;;;31.64;24.59
54816;BME280;40715;55.752;37.884;2023-03-22T05:53:46;98784.03;;;31.68;24.61
54816;BME280;40715;55.752;37.884;2023-03-22T05:56:13;98789.94;;;31.72;24.89
54816;BME280;40715;55.752;37.884;2023-03-22T05:58:41;98795.19;;;31.73;24.91
54816;BME280;40715;55.752;37.884;2023-03-22T06:01:12;98793.31;;;31.74;25.00
54816;BME280;40715;55.752;37.884;2023-03-22T06:03:39;98786.19;;;31.73;24.99
54816;BME280;40715;55.752;37.884;2023-03-22T06:06:06;98788.72;;;31.74;24.85
54816;BME280;40715;55.752;37.884;2023-03-22T06:08:37;98784.78;;;31.77;25.06
54816;BME280;40715;55.752;37.884;2023-03-22T06:11:06;98793.59;;;31.79;24.99
54816;BME280;40715;55.752;37.884;2023-03-22T06:13:33;98788.97;;;31.79;24.85
54816;BME280;40715;55.752;37.884;2023-03-22T06:16:01;98799.66;;;31.81;24.96
54816;BME280;40715;55.752;37.884;2023-03-22T06:18:29;98805.59;;;31.84;24.76
54816;BME280;40715;55.752;37.884;2023-03-22T06:20:56;98801.66;;;31.87;24.76
54816;BME280;40715;55.752;37.884;2023-03-22T06:23:24;98798.66;;;31.82;24.97
54816;BME280;40715;55.752;37.884;2023-03-22T06:25:50;98809.63;;;31.89;25.23
54816;BME280;40715;55.752;37.884;2023-03-22T06:28:17;98814.22;;;31.88;25.17
54816;BME280;40715;55.752;37.884;2023-03-22T06:30:44;98808.41;;;31.91;25.15
54816;BME280;40715;55.752;37.884;2023-03-22T06:33:11;98798.34;;;31.92;25.26
54816;BME280;40715;55.752;37.884;2023-03-22T06:35:38;98802.09;;;31.91;24.93
54816;BME280;40715;55.752;37.884;2023-03-22T06:38:05;98799.38;;;31.91;25.31
54816;BME280;40715;55.752;37.884;2023-03-22T06:40:32;98806.31;;;31.93;24.96
54816;BME280;40715;55.752;37.884;2023-03-22T06:43:01;98806.31;;;31.93;25.25
54816;BME280;40715;55.752;37.884;2023-03-22T06:45:32;98808.66;;;31.96;24.76
54816;BME280;40715;55.752;37.884;2023-03-22T06:47:59;98810.72;;;31.94;24.93
54816;BME280;40715;55.752;37.884;2023-03-22T06:50:27;98814.28;;;31.95;25.14
54816;BME280;40715;55.752;37.884;2023-03-22T06:52:55;98816.81;;;31.96;25.18
54816;BME280;40715;55.752;37.884;2023-03-22T06:55:22;98804.41;;;31.94;25.05
54816;BME280;40715;55.752;37.884;2023-03-22T06:57:49;98815.59;;;31.99;25.06
54816;BME280;40715;55.752;37.884;2023-03-22T07:00:16;98832.97;;;31.98;25.07
54816;BME280;40715;55.752;37.884;2023-03-22T07:02:43;98825.66;;;31.98;24.81
54816;BME280;40715;55.752;37.884;2023-03-22T07:05:11;98828.56;;;31.97;24.93
54816;BME280;40715;55.752;37.884;2023-03-22T07:07:37;98832.13;;;31.97;24.88
54816;BME280;40715;55.752;37.884;2023-03-22T07:10:05;98830.25;;;31.98;24.48
54816;BME280;40715;55.752;37.884;2023-03-22T07:12:33;98836.38;;;32.00;24.73
54816;BME280;40715;55.752;37.884;2023-03-22T07:15:01;98839.28;;;31.98;24.91
54816;BME280;40715;55.752;37.884;2023-03-22T07:17:28;98836.38;;;32.00;24.39
54816;BME280;40715;55.752;37.884;2023-03-22T07:19:55;98835.06;;;31.96;24.73
54816;BME280;40715;55.752;37.884;2023-03-22T07:22:22;98840.13;;;31.99;24.87
54816;BME280;40715;55.752;37.884;2023-03-22T07:24:51;98840.13;;;31.99;24.32
54816;BME280;40715;55.752;37.884;2023-03-22T07:27:24;98845.16;;;32.02;24.61
54816;BME280;40715;55.752;37.884;2023-03-22T07:29:50;98848.75;;;32.03;24.32
54816;BME280;40715;55.752;37.884;2023-03-22T07:32:17;98839.09;;;32.00;24.26
54816;BME280;40715;55.752;37.884;2023-03-22T07:34:45;98844.78;;;32.05;24.59
54816;BME280;40715;55.752;37.884;2023-03-22T07:37:12;98849.19;;;32.06;24.63
54816;BME280;40715;55.752;37.884;2023-03-22T07:39:38;98860.78;;;32.08;24.14
54816;BME280;40715;55.752;37.884;2023-03-22T07:42:05;98859.91;;;32.08;24.43
54816;BME280;40715;55.752;37.884;2023-03-22T07:44:32;98847.50;;;32.05;24.20
54816;BME280;40715;55.752;37.884;2023-03-22T07:46:59;98854.25;;;32.09;24.43
54816;BME280;40715;55.752;37.884;2023-03-22T07:49:26;98852.22;;;32.11;24.13
54816;BME280;40715;55.752;37.884;2023-03-22T07:51:53;98845.19;;;32.17;24.04
54816;BME280;40715;55.752;37.884;2023-03-22T07:54:23;98837.19;;;32.15;24.23
54816;BME280;40715;55.752;37.884;2023-03-22T07:57:00;98849.44;;;32.26;24.02
54816;BME280;40715;55.752;37.884;2023-03-22T07:59:27;98847.59;;;32.27;24.32
54816;BME280;40715;55.752;37.884;2023-03-22T08:01:54;98853.69;;;32.29;24.12
54816;BME280;40715;55.752;37.884;2023-03-22T08:04:21;98850.94;;;32.29;23.95
54816;BME280;40715;55.752;37.884;2023-03-22T08:06:48;98859.75;;;32.31;24.12
54816;BME280;40715;55.752;37.884;2023-03-22T08:09:16;98864.19;;;32.32;23.82
54816;BME280;40715;55.752;37.884;2023-03-22T08:11:43;98846.81;;;32.33;23.60
54816;BME280;40715;55.752;37.884;2023-03-22T08:14:10;98859.41;;;32.34;24.18
54816;BME280;40715;55.752;37.884;2023-03-22T08:16:37;98855.63;;;32.35;23.94
54816;BME280;40715;55.752;37.884;2023-03-22T08:19:04;98854.78;;;32.34;23.98
54816;BME280;40715;55.752;37.884;2023-03-22T08:21:31;98856.47;;;32.35;24.03
54816;BME280;40715;55.752;37.884;2023-03-22T08:23:58;98855.38;;;32.30;23.91
54816;BME280;40715;55.752;37.884;2023-03-22T08:26:25;98865.50;;;32.36;23.75
54816;BME280;40715;55.752;37.884;2023-03-22T08:28:52;98863.78;;;32.35;23.78
54816;BME280;40715;55.752;37.884;2023-03-22T08:31:19;98861.25;;;32.33;23.81
54816;BME280;40715;55.752;37.884;2023-03-22T08:33:47;98857.31;;;32.36;23.75
54816;BME280;40715;55.752;37.884;2023-03-22T08:36:17;98867.38;;;32.35;23.63
54816;BME280;40715;55.752;37.884;2023-03-22T08:38:46;98867.38;;;32.35;23.34
54816;BME280;40715;55.752;37.884;2023-03-22T08:41:13;98870.09;;;32.35;23.57
54816;BME280;40715;55.752;37.884;2023-03-22T08:43:42;98868.50;;;32.41;23.63
54816;BME280;40715;55.752;37.884;2023-03-22T08:46:09;98877.50;;;32.42;23.28
54816;BME280;40715;55.752;37.884;2023-03-22T08:48:36;98865.56;;;32.43;23.69
54816;BME280;40715;55.752;37.884;2023-03-22T08:51:04;98865.38;;;32.44;23.51
54816;BME280;40715;55.752;37.884;2023-03-22T08:53:32;98864.97;;;32.47;23.42
54816;BME280;40715;55.752;37.884;2023-03-22T08:55:59;98866.28;;;32.51;23.09
54816;BME280;40715;55.752;37.884;2023-03-22T08:58:27;98868.59;;;32.55;23.53
54816;BME280;40715;55.752;37.884;2023-03-22T09:00:54;98859.41;;;32.56;23.28
54816;BME280;40715;55.752;37.884;2023-03-22T09:03:21;98870.94;;;32.58;23.32
54816;BME280;40715;55.752;37.884;2023-03-22T09:05:50;98861.72;;;32.59;23.27
54816;BME280;40715;55.752;37.884;2023-03-22T09:08:18;98870.09;;;32.57;23.13
54816;BME280;40715;55.752;37.884;2023-03-22T09:10:46;98867.56;;;32.56;23.20
54816;BME280;40715;55.752;37.884;2023-03-22T09:13:17;98856.00;;;32.53;22.97
54816;BME280;40715;55.752;37.884;2023-03-22T09:15:46;98860.63;;;32.53;22.93
54816;BME280;40715;55.752;37.884;2023-03-22T09:18:14;98865.25;;;32.52;23.37
54816;BME280;40715;55.752;37.884;2023-03-22T09:20:43;98869.00;;;32.51;22.82
54816;BME280;40715;55.752;37.884;2023-03-22T09:23:12;98865.44;;;32.51;22.75
54816;BME280;40715;55.752;37.884;2023-03-22T09:25:44;98864.16;;;32.47;23.19
54816;BME280;40715;55.752;37.884;2023-03-22T09:28:11;98870.22;;;32.49;23.03
54816;BME280;40715;55.752;37.884;2023-03-22T09:30:38;98860.13;;;32.43;23.15
54816;BME280;40715;55.752;37.884;2023-03-22T09:33:06;98875.59;;;32.42;22.70
54816;BME280;40715;55.752;37.884;2023-03-22T09:35:33;98876.19;;;32.38;22.64
54816;BME280;40715;55.752;37.884;2023-03-22T09:38:00;98877.22;;;32.37;22.91
54816;BME280;40715;55.752;37.884;2023-03-22T09:40:31;98878.69;;;32.32;22.66
54816;BME280;40715;55.752;37.884;2023-03-22T09:43:08;98874.91;;;32.33;22.82
54816;BME280;40715;55.752;37.884;2023-03-22T09:45:40;98885.53;;;32.28;22.77
54816;BME280;40715;55.752;37.884;2023-03-22T09:48:41;98879.25;;;32.49;22.83
54816;BME280;40715;55.752;37.884;2023-03-22T09:53:52;98886.69;;;32.19;22.56
54816;BME280;40715;55.752;37.884;2023-03-22T09:56:22;98881.00;;;32.14;23.12
54816;BME280;40715;55.752;37.884;2023-03-22T09:59:14;98889.31;;;32.27;22.85
54816;BME280;40715;55.752;37.884;2023-03-22T10:01:54;98891.69;;;32.15;22.77
54816;BME280;40715;55.752;37.884;2023-03-22T10:04:39;98884.22;;;32.09;23.07
54816;BME280;40715;55.752;37.884;2023-03-22T10:15:18;98876.34;;;31.99;23.12
54816;BME280;40715;55.752;37.884;2023-03-22T10:17:51;98874.13;;;31.88;23.01
54816;BME280;40715;55.752;37.884;2023-03-22T10:20:29;98884.28;;;31.94;22.73
54816;BME280;40715;55.752;37.884;2023-03-22T10:23:00;98887.38;;;31.91;22.69
54816;BME280;40715;55.752;37.884;2023-03-22T10:25:36;98880.44;;;31.89;22.95
54816;BME280;40715;55.752;37.884;2023-03-22T10:30:44;98875.38;;;31.86;22.56
54816;BME280;40715;55.752;37.884;2023-03-22T10:33:18;98879.50;;;31.81;22.67
54816;BME280;40715;55.752;37.884;2023-03-22T10:35:47;98883.25;;;31.80;22.68
54816;BME280;40715;55.752;37.884;2023-03-22T10:38:22;98886.19;;;31.79;22.66
54816;BME280;40715;55.752;37.884;2023-03-22T10:40:54;98868.13;;;31.78;22.96
54816;BME280;40715;55.752;37.884;2023-03-22T10:43:37;98875.56;;;31.84;22.91
54816;BME280;40715;55.752;37.884;2023-03-22T10:46:08;98878.59;;;31.74;23.03
54816;BME280;40715;55.752;37.884;2023-03-22T10:48:48;98886.56;;;31.76;22.94
54816;BME280;40715;55.752;37.884;2023-03-22T10:51:37;98878.38;;;31.76;23.03
54816;BME280;40715;55.752;37.884;2023-03-22T10:54:11;98881.00;;;31.69;22.95
54816;BME280;40715;55.752;37.884;2023-03-22T10:56:38;98881.84;;;31.70;22.82
54816;BME280;40715;55.752;37.884;2023-03-22T10:59:05;98884.75;;;31.68;22.87
54816;BME280;40715;55.752;37.884;2023-03-22T11:01:34;98884.97;;;31.66;22.61
54816;BME280;40715;55.752;37.884;2023-03-22T11:06:31;98880.56;;;31.65;22.87
54816;BME280;40715;55.752;37.884;2023-03-22T11:11:49;98878.69;;;31.66;22.81
54816;BME280;40715;55.752;37.884;2023-03-22T11:14:27;98870.97;;;31.70;22.81
54816;BME280;40715;55.752;37.884;2023-03-22T11:16:57;98868.63;;;31.66;22.78
54816;BME280;40715;55.752;37.884;2023-03-22T11:19:31;98876.16;;;31.64;22.52
54816;BME280;40715;55.752;37.884;2023-03-22T11:22:00;98873.63;;;31.63;22.55
54816;BME280;40715;55.752;37.884;2023-03-22T11:24:30;98880.09;;;31.62;22.91
54816;BME280;40715;55.752;37.884;2023-03-22T11:27:18;98884.13;;;31.66;22.80
54816;BME280;40715;55.752;37.884;2023-03-22T11:29:48;98870.03;;;31.62;22.79
54816;BME280;40715;55.752;37.884;2023-03-22T11:32:34;98876.53;;;31.61;22.50
54816;BME280;40715;55.752;37.884;2023-03-22T11:35:14;98874.63;;;31.62;22.56
54816;BME280;40715;55.752;37.884;2023-03-22T11:37:50;98867.78;;;31.66;22.71
54816;BME280;40715;55.752;37.884;2023-03-22T11:40:26;98866.94;;;31.65;22.77
54816;BME280;40715;55.752;37.884;2023-03-22T11:43:24;98864.59;;;31.77;22.52
54816;BME280;40715;55.752;37.884;2023-03-22T11:45:55;98868.75;;;31.58;22.33
54816;BME280;40715;55.752;37.884;2023-03-22T11:48:25;98866.03;;;31.58;22.61
54816;BME280;40715;55.752;37.884;2023-03-22T11:50:57;98860.91;;;31.55;22.65
54816;BME280;40715;55.752;37.884;2023-03-22T11:53:26;98871.78;;;31.55;22.53
54816;BME280;40715;55.752;37.884;2023-03-22T11:55:55;98866.16;;;31.57;22.37
54816;BME280;40715;55.752;37.884;2023-03-22T11:58:26;98864.66;;;31.54;22.36
54816;BME280;40715;55.752;37.884;2023-03-22T12:00:57;98865.31;;;31.56;22.70
54816;BME280;40715;55.752;37.884;2023-03-22T12:03:29;98860.91;;;31.55;22.63
54816;BME280;40715;55.752;37.884;2023-03-22T12:06:01;98854.81;;;31.53;22.27
54816;BME280;40715;55.752;37.884;2023-03-22T12:11:33;98864.22;;;31.65;22.69
54816;BME280;40715;55.752;37.884;2023-03-22T12:14:07;98858.16;;;31.55;22.64
54816;BME280;40715;55.752;37.884;2023-03-22T12:16:49;98862.50;;;31.49;22.69
54816;BME280;40715;55.752;37.884;2023-03-22T12:19:42;98865.34;;;31.71;22.73
54816;BME280;40715;55.752;37.884;2023-03-22T12:22:15;98859.56;;;31.51;22.71
54816;BME280;40715;55.752;37.884;2023-03-22T12:24:44;98861.66;;;31.49;22.72
54816;BME280;40715;55.752;37.884;2023-03-22T12:29:56;98861.66;;;31.49;22.75
54816;BME280;40715;55.752;37.884;2023-03-22T12:32:29;98866.47;;;31.47;22.73
54816;BME280;40715;55.752;37.884;2023-03-22T12:34:58;98860.81;;;31.48;22.27
54816;BME280;40715;55.752;37.884;2023-03-22T12:37:45;98858.28;;;31.47;22.53
54816;BME280;40715;55.752;37.884;2023-03-22T12:40:27;98860.06;;;31.55;22.21
54816;BME280;40715;55.752;37.884;2023-03-22T12:45:57;98858.28;;;31.47;22.54
54816;BME280;40715;55.752;37.884;2023-03-22T12:49:06;98859.44;;;31.67;22.32
54816;BME280;40715;55.752;37.884;2023-03-22T12:51:39;98860.34;;;31.45;22.62
54816;BME280;40715;55.752;37.884;2023-03-22T12:54:10;98854.44;;;31.41;22.68
54816;BME280;40715;55.752;37.884;2023-03-22T12:56:41;98856.13;;;31.42;22.24
54816;BME280;40715;55.752;37.884;2023-03-22T12:59:18;98851.97;;;31.46;22.60
54816;BME280;40715;55.752;37.884;2023-03-22T13:02:00;98850.38;;;31.52;22.48
54816;BME280;40715;55.752;37.884;2023-03-22T13:07:31;98846.19;;;31.64;21.86
54816;BME280;40715;55.752;37.884;2023-03-22T13:10:00;98838.94;;;31.42;21.90
54816;BME280;40715;55.752;37.884;2023-03-22T13:18:28;98836.22;;;31.42;21.68
54816;BME280;40715;55.752;37.884;2023-03-22T13:21:19;98835.56;;;31.55;21.56
54816;BME280;40715;55.752;37.884;2023-03-22T13:24:19;98835.84;;;31.45;21.76
54816;BME280;40715;55.752;37.884;2023-03-22T13:26:51;98843.56;;;31.41;21.41
54816;BME280;40715;55.752;37.884;2023-03-22T13:29:25;98846.81;;;31.37;21.73
54816;BME280;40715;55.752;37.884;2023-03-22T13:32:02;98840.34;;;31.38;21.46
54816;BME280;40715;55.752;37.884;2023-03-22T13:34:47;98839.88;;;31.49;21.69
54816;BME280;40715;55.752;37.884;2023-03-22T13:37:42;98839.81;;;31.57;21.24
54816;BME280;40715;55.752;37.884;2023-03-22T13:40:34;98847.47;;;31.54;21.69
54816;BME280;40715;55.752;37.884;2023-03-22T13:45:35;98835.09;;;31.36;21.72
54816;BME280;40715;55.752;37.884;2023-03-22T13:48:28;98830.69;;;31.50;21.47
54816;BME280;40715;55.752;37.884;2023-03-22T13:50:57;98832.19;;;31.38;21.84
54816;BME280;40715;55.752;37.884;2023-03-22T13:53:34;98826.94;;;31.36;21.63
54816;BME280;40715;55.752;37.884;2023-03-22T13:56:04;98829.66;;;31.36;21.87
54816;BME280;40715;55.752;37.884;2023-03-22T14:04:32;98835.00;;;31.44;21.87
54816;BME280;40715;55.752;37.884;2023-03-22T14:07:17;98827.41;;;31.40;21.61
54816;BME280;40715;55.752;37.884;2023-03-22T14:09:55;98822.31;;;31.37;21.69
54816;BME280;40715;55.752;37.884;2023-03-22T14:12:35;98820.28;;;31.39;22.00
54816;BME280;40715;55.752;37.884;2023-03-22T14:15:16;98816.78;;;31.45;21.53
54816;BME280;40715;55.752;37.884;2023-03-22T14:18:04;98816.88;;;31.52;21.75
54816;BME280;40715;55.752;37.884;2023-03-22T14:20:35;98815.78;;;31.46;21.52
54816;BME280;40715;55.752;37.884;2023-03-22T14:23:05;98815.09;;;31.44;21.77
54816;BME280;40715;55.752;37.884;2023-03-22T14:25:34;98807.97;;;31.43;21.63
54816;BME280;40715;55.752;37.884;2023-03-22T14:28:00;98811.16;;;31.46;21.83
54816;BME280;40715;55.752;37.884;2023-03-22T14:32:55;98818.50;;;31.46;21.78
54816;BME280;40715;55.752;37.884;2023-03-22T14:35:35;98818.94;;;31.49;21.78
54816;BME280;40715;55.752;37.884;2023-03-22T14:38:05;98816.41;;;31.48;21.47
54816;BME280;40715;55.752;37.884;2023-03-22T14:40:35;98819.31;;;31.46;21.95